Language selection

Features

My Weather Profile Weather Topics  | 

Central - eastern half: Past 24 Hour Conditions

 

Fort Severn Airport

04:00 AM EST 15 November 2019
Disclaimer

This table is a summary of hourly weather conditions for the past 24 hours.
Please note that these observations might not always be representative of weather conditions over their associated marine area.

Date / Time
(EST)
Wind(knots) Conditions Visibility(km) Pressure(kPa) Air tempC) Relative humidity(%) Dew pointC) Wind Chill
15 November 2019
4:00 WNW 16 gust 25 Clear 16 101.3 -18 83 -21 -30
3:00 WNW 17 gust 26 Clear 16 101.2 -18 83 -20 -30
2:00 WNW 16 gust 28 Light Snow 6 101.0 -18 82 -20 -30
1:00 WNW 17 gust 29 Light Snow 1 100.9 -17 86 -19 -29
0:00 WNW 19 gust 29 Snow 0.6 100.7 -17 87 -19 -30
14 November 2019
23:00 WNW 21 gust 29 Light Snow 2 100.6 -18 84 -20 -31
22:00 WNW 22 gust 32 Drifting Snow 2 100.5 -17 81 -20 -31
21:00 WNW 20 gust 33 Light Snow 3 100.4 -17 81 -20 -30
20:00 WNW 21 gust 36 Drifting Snow 3 100.4 -17 81 -20 -30
19:00 WNW 18 gust 30 Light Snow 2 100.3 -16 83 -18 -28
18:00 WNW 19 gust 28 Light Snow 4 100.3 -14 83 -16 -25
17:00 WNW 16 gust 26 Light Snow 3 100.2 -11 88 -12 -21
16:00 W 10 gust 17 Light Snow 5 100.1 -11 87 -13 -19
15:00 WNW 13 Light Snow 16 100.1 -11 83 -13 -20
14:00 W 9 gust 15 Light Snow 5 100.1 -11 85 -13 -19
13:00 W 10 gust 16 Light Snow 6 100.1 -12 84 -14 -20
12:00 W 11 gust 17 Light Snow 5 100.2 -12 83 -14 -20
11:00 W 10 gust 15 Cloudy 16 100.2 -12 80 -15 -20
10:00 WSW 12 gust 17 Cloudy 16 100.3 -13 81 -15 -22
9:00 WSW 11 Cloudy 16 100.4 -13 80 -16 -22
8:00 WSW 8 Cloudy 16 100.5 -14 78 -17 -21
7:00 WSW 9 Cloudy 16 100.6 -14 78 -17 -22
6:00 W 9 Cloudy 16 100.7 -13 78 -16 -21
5:00 W 10 gust 15 Cloudy 16 100.7 -13 78 -16 -21
4:00 W 13 Light Snow 16 100.8 -13 77 -16 -22

Zoom-in to make a selection

Map of Hudson - Hudson Bay marine weather areas Arviat Airport Baker Lake Airport Chesterfield Inlet Airport Coral Harbour Airport Rankin Inlet Airport Sanikiluaq Airport Whale Cove Airport Cape Dorset Airport Iqaluit Airport Wager Bay Kimmirut Airport Churchill Airport Fort Severn Airport Peawanuck Airport Moosonee Airport Eastmain Airport La Grande Rivière Airport Waskaganish Airport Wemindji Airport Akulivik Airport Inukjuak Airport Ivujivik Airport Kuujjuarapik Airport Puvirnituq Airport Umiujaq Airport Aupaluk Airport Kangiqsujuaq Airport Kangirsuk Airport Kangiqsualujjuaq Airport Kuujjuaq Airport Quaqtaq Airport Salluit Airport Tasiujaq Airport Cape Kakkiviak
Legend:
buoy Buoy
land station Land Station

Hudson - Hudson Bay Area

Another Region

What we are doing

Date modified: